createdAt,value
2018-09-03T00:00:00.978Z,22.18
2018-09-03T00:01:00.876Z,22.25
2018-09-03T00:02:00.793Z,22.28
2018-09-03T00:03:00.700Z,22.22
2018-09-03T00:04:00.591Z,22.22
2018-09-03T00:05:00.504Z,22.22
2018-09-03T00:06:00.411Z,22.20
2018-09-03T00:07:00.305Z,22.22
2018-09-03T00:08:00.219Z,22.20
2018-09-03T00:09:00.116Z,22.18
2018-09-03T00:10:00.021Z,22.22
2018-09-03T00:10:59.930Z,22.18
2018-09-03T00:11:59.830Z,22.22
2018-09-03T00:12:59.739Z,22.18
2018-09-03T00:13:59.650Z,22.25
2018-09-03T00:14:59.548Z,22.25
2018-09-03T00:15:59.452Z,22.17
2018-09-03T00:16:59.349Z,22.25
2018-09-03T00:17:59.261Z,22.25
2018-09-03T00:18:59.169Z,22.23
2018-09-03T00:19:59.061Z,22.20
2018-09-03T00:20:58.970Z,22.26
2018-09-03T00:21:58.881Z,22.17
2018-09-03T00:22:59.028Z,22.23
2018-09-03T00:23:58.694Z,22.25
2018-09-03T00:24:58.589Z,22.20
2018-09-03T00:25:58.491Z,22.28
2018-09-03T00:26:58.401Z,22.28
2018-09-03T00:27:58.302Z,22.20
2018-09-03T00:28:58.224Z,22.28
2018-09-03T00:29:58.123Z,22.28
2018-09-03T00:30:58.020Z,22.26
2018-09-03T00:31:57.923Z,22.23
2018-09-03T00:32:57.820Z,22.26
2018-09-03T00:33:57.732Z,22.17
2018-09-03T00:34:57.640Z,22.20
2018-09-03T00:35:57.533Z,22.22
2018-09-03T00:36:57.444Z,22.25
2018-09-03T00:37:57.355Z,22.20
2018-09-03T00:38:57.252Z,22.25
2018-09-03T00:39:57.164Z,22.20
2018-09-03T00:40:57.060Z,22.20
2018-09-03T00:41:56.966Z,22.25
2018-09-03T00:42:56.875Z,22.23
2018-09-03T00:43:56.777Z,22.18
2018-09-03T00:44:56.685Z,22.18
2018-09-03T00:45:56.592Z,22.07
2018-09-03T00:46:56.489Z,22.18
2018-09-03T00:47:56.394Z,22.25
2018-09-03T00:48:56.291Z,22.20
2018-09-03T00:49:56.207Z,22.13
2018-09-03T00:50:56.115Z,22.14
2018-09-03T00:51:56.008Z,22.11
2018-09-03T00:52:56.217Z,22.14
2018-09-03T00:53:55.824Z,22.10
2018-09-03T00:54:55.720Z,22.11
2018-09-03T00:55:55.635Z,22.11
2018-09-03T00:56:55.532Z,22.17
2018-09-03T00:57:55.687Z,22.17
2018-09-03T00:58:55.345Z,22.20
2018-09-03T00:59:55.247Z,22.14
2018-09-03T01:00:55.160Z,22.17
2018-09-03T01:01:55.067Z,22.11
2018-09-03T01:02:54.964Z,22.02
2018-09-03T01:03:54.868Z,22.08
2018-09-03T01:04:54.765Z,22.07
2018-09-03T01:05:54.677Z,22.14
2018-09-03T01:06:54.585Z,21.95
2018-09-03T01:07:54.478Z,22.10
2018-09-03T01:08:54.387Z,22.07
2018-09-03T01:09:54.298Z,22.06
2018-09-03T01:10:54.195Z,22.04
2018-09-03T01:11:54.109Z,22.06
2018-09-03T01:12:54.006Z,22.10
2018-09-03T01:13:53.910Z,22.00
2018-09-03T01:14:53.821Z,21.98
2018-09-03T01:15:53.721Z,22.00
2018-09-03T01:16:53.629Z,22.06
2018-09-03T01:17:53.526Z,21.98
2018-09-03T01:18:53.434Z,21.98
2018-09-03T01:19:53.338Z,21.98
2018-09-03T01:20:53.235Z,22.00
2018-09-03T01:21:53.155Z,21.92
2018-09-03T01:22:53.061Z,21.93
2018-09-03T01:23:52.951Z,21.92
2018-09-03T01:24:52.862Z,21.99
2018-09-03T01:25:52.756Z,21.93
2018-09-03T01:26:52.665Z,21.93
2018-09-03T01:27:52.829Z,21.89
2018-09-03T01:28:52.476Z,21.98
2018-09-03T01:29:52.384Z,21.96
2018-09-03T01:30:52.295Z,21.95
2018-09-03T01:31:52.186Z,21.95
2018-09-03T01:32:52.096Z,21.93
2018-09-03T01:33:51.997Z,21.85
2018-09-03T01:34:51.903Z,21.92
2018-09-03T01:35:51.816Z,21.88
2018-09-03T01:36:51.713Z,21.88
2018-09-03T01:37:51.616Z,21.89
2018-09-03T01:38:51.514Z,21.93
2018-09-03T01:39:51.425Z,21.89
2018-09-03T01:40:51.336Z,21.85
2018-09-03T01:41:51.235Z,21.85
2018-09-03T01:42:51.143Z,21.88
2018-09-03T01:43:51.049Z,21.92
2018-09-03T01:44:50.945Z,21.92
2018-09-03T01:45:50.858Z,21.91
2018-09-03T01:46:50.755Z,21.82
2018-09-03T01:47:50.661Z,21.82
2018-09-03T01:48:50.569Z,21.82
2018-09-03T01:49:50.465Z,21.82
2018-09-03T01:50:50.373Z,21.76
2018-09-03T01:51:50.274Z,21.72
2018-09-03T01:52:50.187Z,21.54
2018-09-03T01:53:50.091Z,21.52
2018-09-03T01:54:49.988Z,21.25
2018-09-03T01:55:49.900Z,21.11
2018-09-03T01:56:49.798Z,20.85
2018-09-03T01:57:49.705Z,20.65
2018-09-03T01:58:49.612Z,20.44
2018-09-03T01:59:49.507Z,20.28
2018-09-03T02:00:49.414Z,20.19
2018-09-03T02:01:49.317Z,20.18
2018-09-03T02:02:49.225Z,20.04
2018-09-03T02:03:49.117Z,20.00
2018-09-03T02:04:49.026Z,19.89
2018-09-03T02:05:48.926Z,19.91
2018-09-03T02:06:48.834Z,19.89
2018-09-03T02:07:48.736Z,19.91
2018-09-03T02:08:48.645Z,19.92
2018-09-03T02:09:48.536Z,20.04
2018-09-03T02:10:48.443Z,19.96
2018-09-03T02:11:48.357Z,19.91
2018-09-03T02:12:48.255Z,19.95
2018-09-03T02:13:48.165Z,19.94
2018-09-03T02:14:48.062Z,19.94
2018-09-03T02:15:47.968Z,19.94
2018-09-03T02:16:47.864Z,19.99
2018-09-03T02:17:47.777Z,20.03
2018-09-03T02:18:47.673Z,20.10
2018-09-03T02:19:47.568Z,20.09
2018-09-03T02:20:47.477Z,20.10
2018-09-03T02:21:47.372Z,20.10
2018-09-03T02:22:47.279Z,20.11
2018-09-03T02:23:47.186Z,20.19
2018-09-03T02:24:47.091Z,20.21
2018-09-03T02:25:46.984Z,20.16
2018-09-03T02:26:46.893Z,20.26
2018-09-03T02:27:46.795Z,20.31
2018-09-03T02:28:46.704Z,20.31
2018-09-03T02:29:46.605Z,20.31
2018-09-03T02:30:46.510Z,20.41
2018-09-03T02:31:46.413Z,20.41
2018-09-03T02:32:46.311Z,20.43
2018-09-03T02:33:46.220Z,20.43
2018-09-03T02:34:46.121Z,20.50
2018-09-03T02:35:46.013Z,20.41
2018-09-03T02:36:45.922Z,20.39
2018-09-03T02:37:45.818Z,20.50
2018-09-03T02:38:45.730Z,20.48
2018-09-03T02:39:45.626Z,20.62
2018-09-03T02:40:45.540Z,20.60
2018-09-03T02:41:45.433Z,20.58
2018-09-03T02:42:45.340Z,20.56
2018-09-03T02:43:45.257Z,20.60
2018-09-03T02:44:45.150Z,20.63
2018-09-03T02:45:45.046Z,20.66
2018-09-03T02:46:44.954Z,20.62
2018-09-03T02:47:44.846Z,20.63
2018-09-03T02:48:44.757Z,20.62
2018-09-03T02:49:44.658Z,20.66
2018-09-03T02:50:44.566Z,20.74
2018-09-03T02:51:44.458Z,20.69
2018-09-03T02:52:44.367Z,20.60
2018-09-03T02:53:44.267Z,20.63
2018-09-03T02:54:44.174Z,20.58
2018-09-03T02:55:44.076Z,20.66
2018-09-03T02:56:43.986Z,20.66
2018-09-03T02:57:43.876Z,20.72
2018-09-03T02:58:43.784Z,20.69
2018-09-03T02:59:43.686Z,20.66
2018-09-03T03:00:43.595Z,20.72
2018-09-03T03:01:43.498Z,20.70
2018-09-03T03:02:43.403Z,20.62
2018-09-03T03:03:43.295Z,20.65
2018-09-03T03:04:43.205Z,20.65
2018-09-03T03:05:43.106Z,20.60
2018-09-03T03:06:43.014Z,20.59
2018-09-03T03:07:43.207Z,20.62
2018-09-03T03:08:42.821Z,20.63
2018-09-03T03:09:42.712Z,20.65
2018-09-03T03:10:42.633Z,20.62
2018-09-03T03:11:42.575Z,20.60
2018-09-03T03:12:42.432Z,20.59
2018-09-03T03:13:42.326Z,20.62
2018-09-03T03:14:42.235Z,20.52
2018-09-03T03:15:42.136Z,20.37
2018-09-03T03:16:42.045Z,20.34
2018-09-03T03:17:41.951Z,20.29
2018-09-03T03:18:41.850Z,20.14
2018-09-03T03:19:41.753Z,20.10
2018-09-03T03:20:41.651Z,20.11
2018-09-03T03:21:41.565Z,20.16
2018-09-03T03:22:41.462Z,20.19
2018-09-03T03:23:41.366Z,20.21
2018-09-03T03:24:41.262Z,20.13
2018-09-03T03:25:41.172Z,20.21
2018-09-03T03:26:41.070Z,20.28
2018-09-03T03:27:40.983Z,20.29
2018-09-03T03:28:40.880Z,20.29
2018-09-03T03:29:40.782Z,20.28
2018-09-03T03:30:40.679Z,20.34
2018-09-03T03:31:40.593Z,20.26
2018-09-03T03:32:40.493Z,20.32
2018-09-03T03:33:40.400Z,20.39
2018-09-03T03:34:40.297Z,20.43
2018-09-03T03:35:40.202Z,20.37
2018-09-03T03:36:40.100Z,20.41
2018-09-03T03:37:40.019Z,20.47
2018-09-03T03:38:39.902Z,20.50
2018-09-03T03:39:39.818Z,20.52
2018-09-03T03:40:39.713Z,20.52
2018-09-03T03:41:39.624Z,20.52
2018-09-03T03:42:39.770Z,20.52
2018-09-03T03:43:39.427Z,20.55
2018-09-03T03:44:39.324Z,20.59
2018-09-03T03:45:39.233Z,20.63
2018-09-03T03:46:39.131Z,20.65
2018-09-03T03:47:39.036Z,20.66
2018-09-03T03:48:38.953Z,20.63
2018-09-03T03:49:38.846Z,20.56
2018-09-03T03:50:38.740Z,20.67
2018-09-03T03:51:38.655Z,20.60
2018-09-03T03:52:38.551Z,20.59
2018-09-03T03:53:38.455Z,20.60
2018-09-03T03:54:38.352Z,20.56
2018-09-03T03:55:38.278Z,20.63
2018-09-03T03:56:38.162Z,20.60
2018-09-03T03:57:38.068Z,20.65
2018-09-03T03:58:37.968Z,20.59
2018-09-03T03:59:37.871Z,20.65
2018-09-03T04:00:37.781Z,20.56
2018-09-03T04:01:37.682Z,20.62
2018-09-03T04:02:37.592Z,20.60
2018-09-03T04:03:37.485Z,20.59
2018-09-03T04:04:37.394Z,20.52
2018-09-03T04:05:37.288Z,20.52
2018-09-03T04:06:37.198Z,20.40
2018-09-03T04:07:37.100Z,20.47
2018-09-03T04:08:37.020Z,20.41
2018-09-03T04:09:36.900Z,20.41
2018-09-03T04:10:36.810Z,20.44
2018-09-03T04:11:36.711Z,20.40
2018-09-03T04:12:36.620Z,20.39
2018-09-03T04:13:36.518Z,20.26
2018-09-03T04:14:36.428Z,20.39
2018-09-03T04:15:36.320Z,20.34
2018-09-03T04:16:36.231Z,20.26
2018-09-03T04:17:36.128Z,20.32
2018-09-03T04:18:36.037Z,20.28
2018-09-03T04:19:35.930Z,20.43
2018-09-03T04:20:35.838Z,20.39
2018-09-03T04:21:35.737Z,20.28
2018-09-03T04:22:35.648Z,20.34
2018-09-03T04:23:35.550Z,20.28
2018-09-03T04:24:35.457Z,20.29
2018-09-03T04:25:35.349Z,20.40
2018-09-03T04:26:35.259Z,20.40
2018-09-03T04:27:35.161Z,20.40
2018-09-03T04:28:35.070Z,20.43
2018-09-03T04:29:34.964Z,20.37
2018-09-03T04:30:34.873Z,20.39
2018-09-03T04:31:34.778Z,20.43
2018-09-03T04:32:34.676Z,20.37
2018-09-03T04:33:34.578Z,20.34
2018-09-03T04:34:34.489Z,20.28
2018-09-03T04:35:34.405Z,20.29
2018-09-03T04:36:34.292Z,20.29
2018-09-03T04:37:34.195Z,20.37
2018-09-03T04:38:34.146Z,20.37
2018-09-03T04:39:34.005Z,20.41
2018-09-03T04:40:33.904Z,20.39
2018-09-03T04:41:33.813Z,20.40
2018-09-03T04:42:33.709Z,20.44
2018-09-03T04:43:33.619Z,20.37
2018-09-03T04:44:33.517Z,20.43
2018-09-03T04:45:33.424Z,20.41
2018-09-03T04:46:33.321Z,20.44
2018-09-03T04:47:33.227Z,20.44
2018-09-03T04:48:33.124Z,20.55
2018-09-03T04:49:33.037Z,20.62
2018-09-03T04:50:32.935Z,20.72
2018-09-03T04:51:32.839Z,20.72
2018-09-03T04:52:32.735Z,20.75
2018-09-03T04:53:32.644Z,20.80
2018-09-03T04:54:32.627Z,20.84
2018-09-03T04:55:32.453Z,20.81
2018-09-03T04:56:32.352Z,20.82
2018-09-03T04:57:32.256Z,20.78
2018-09-03T04:58:32.163Z,20.87
2018-09-03T04:59:32.065Z,21.00
2018-09-03T05:00:31.976Z,20.93
2018-09-03T05:01:31.873Z,21.02
2018-09-03T05:02:31.781Z,21.02
2018-09-03T05:03:31.674Z,21.07
2018-09-03T05:04:31.584Z,21.11
2018-09-03T05:05:31.516Z,21.05
2018-09-03T05:06:31.391Z,21.03
2018-09-03T05:07:31.301Z,21.12
2018-09-03T05:08:31.194Z,21.12
2018-09-03T05:09:31.105Z,20.99
2018-09-03T05:10:31.001Z,21.14
2018-09-03T05:11:30.925Z,20.97
2018-09-03T05:12:31.123Z,21.03
2018-09-03T05:13:30.718Z,21.14
2018-09-03T05:14:30.626Z,21.22
2018-09-03T05:15:30.527Z,21.25
2018-09-03T05:16:30.436Z,21.14
2018-09-03T05:17:30.333Z,21.24
2018-09-03T05:18:30.240Z,21.02
2018-09-03T05:19:30.148Z,21.37
2018-09-03T05:20:30.048Z,21.48
2018-09-03T05:21:29.957Z,21.43
2018-09-03T05:22:29.866Z,21.52
2018-09-03T05:23:29.759Z,21.62
2018-09-03T05:24:29.668Z,21.60
2018-09-03T05:25:29.563Z,21.62
2018-09-03T05:26:29.485Z,21.50
2018-09-03T05:27:29.384Z,21.54
2018-09-03T05:28:29.282Z,21.52
2018-09-03T05:29:29.186Z,21.50
2018-09-03T05:30:29.096Z,21.66
2018-09-03T05:31:28.997Z,21.77
2018-09-03T05:32:28.905Z,21.64
2018-09-03T05:33:28.811Z,21.54
2018-09-03T05:34:28.714Z,21.57
2018-09-03T05:35:28.620Z,21.55
2018-09-03T05:36:28.517Z,21.42
2018-09-03T05:37:28.427Z,21.45
2018-09-03T05:38:28.335Z,21.54
2018-09-03T05:39:28.229Z,21.52
2018-09-03T05:40:28.139Z,21.39
2018-09-03T05:41:28.049Z,21.51
2018-09-03T05:42:27.945Z,21.45
2018-09-03T05:43:27.876Z,21.52
2018-09-03T05:44:27.767Z,21.46
2018-09-03T05:45:27.664Z,21.51
2018-09-03T05:46:27.574Z,21.52
2018-09-03T05:47:27.478Z,21.55
2018-09-03T05:48:27.388Z,21.64
2018-09-03T05:49:27.284Z,21.54
2018-09-03T05:50:27.219Z,21.52
2018-09-03T05:51:27.092Z,21.61
2018-09-03T05:52:27.004Z,21.69
2018-09-03T05:53:26.925Z,21.66
2018-09-03T05:54:26.804Z,21.82
2018-09-03T05:55:26.720Z,21.66
2018-09-03T05:56:26.627Z,21.89
2018-09-03T05:57:26.522Z,22.11
2018-09-03T05:58:26.432Z,22.17
2018-09-03T05:59:26.336Z,22.18
2018-09-03T06:00:26.233Z,22.18
2018-09-03T06:01:26.201Z,22.36
2018-09-03T06:02:26.056Z,22.14
2018-09-03T06:03:25.953Z,22.10
2018-09-03T06:04:25.858Z,22.18
2018-09-03T06:05:25.769Z,22.29
2018-09-03T06:06:25.678Z,22.14
2018-09-03T06:07:25.582Z,22.41
2018-09-03T06:08:25.488Z,22.48
2018-09-03T06:09:25.392Z,22.39
2018-09-03T06:10:25.313Z,22.47
2018-09-03T06:11:25.217Z,22.50
2018-09-03T06:12:25.111Z,22.45
2018-09-03T06:13:25.010Z,22.33
2018-09-03T06:14:24.917Z,22.20
2018-09-03T06:15:24.823Z,22.08
2018-09-03T06:16:24.732Z,21.99
2018-09-03T06:17:24.647Z,21.99
2018-09-03T06:18:24.544Z,21.93
2018-09-03T06:19:24.451Z,22.20
2018-09-03T06:20:24.345Z,22.53
2018-09-03T06:21:24.255Z,22.48
2018-09-03T06:22:24.161Z,22.62
2018-09-03T06:23:24.073Z,22.65
2018-09-03T06:24:23.971Z,22.88
2018-09-03T06:25:23.880Z,22.91
2018-09-03T06:26:23.787Z,22.98
2018-09-03T06:27:23.715Z,23.17
2018-09-03T06:28:23.597Z,23.24
2018-09-03T06:29:23.505Z,23.21
2018-09-03T06:30:23.412Z,23.31
2018-09-03T06:31:23.319Z,22.98
2018-09-03T06:32:23.217Z,22.96
2018-09-03T06:33:23.130Z,23.17
2018-09-03T06:34:23.037Z,23.05
2018-09-03T06:35:22.931Z,22.84
2018-09-03T06:36:22.839Z,22.84
2018-09-03T06:37:22.752Z,22.88
2018-09-03T06:38:22.671Z,22.75
2018-09-03T06:39:22.575Z,22.66
2018-09-03T06:40:22.469Z,22.57
2018-09-03T06:41:22.372Z,22.39
2018-09-03T06:42:22.282Z,22.32
2018-09-03T06:43:22.207Z,22.26
2018-09-03T06:44:22.092Z,22.14
2018-09-03T06:45:22.004Z,22.28
2018-09-03T06:46:21.912Z,22.33
2018-09-03T06:47:21.818Z,22.48
2018-09-03T06:48:21.714Z,22.29
2018-09-03T06:49:21.625Z,22.14
2018-09-03T06:50:21.535Z,22.13
2018-09-03T06:51:21.439Z,22.00
2018-09-03T06:52:21.337Z,21.96
2018-09-03T06:53:21.279Z,22.22
2018-09-03T06:54:21.157Z,22.29
2018-09-03T06:55:21.059Z,22.18
2018-09-03T06:56:20.967Z,22.23
2018-09-03T06:57:21.170Z,22.20
2018-09-03T06:58:20.781Z,22.33
2018-09-03T06:59:20.680Z,22.30
2018-09-03T07:00:20.601Z,22.22
2018-09-03T07:01:20.501Z,22.13
2018-09-03T07:02:20.409Z,22.11
2018-09-03T07:03:20.301Z,22.17
2018-09-03T07:04:20.212Z,22.10
2018-09-03T07:05:20.124Z,22.17
2018-09-03T07:06:20.024Z,22.23
2018-09-03T07:07:19.926Z,22.38
2018-09-03T07:08:19.834Z,22.35
2018-09-03T07:09:19.731Z,22.30
2018-09-03T07:10:19.639Z,22.23
2018-09-03T07:11:19.552Z,22.33
2018-09-03T07:12:19.450Z,22.28
2018-09-03T07:13:19.358Z,22.45
2018-09-03T07:14:19.265Z,22.48
2018-09-03T07:15:19.179Z,22.45
2018-09-03T07:16:19.076Z,22.35
2018-09-03T07:17:18.982Z,22.36
2018-09-03T07:18:18.892Z,22.54
2018-09-03T07:19:18.797Z,22.51
2018-09-03T07:20:18.693Z,22.51
2018-09-03T07:21:18.607Z,22.50
2018-09-03T07:22:18.515Z,22.41
2018-09-03T07:23:18.410Z,22.51
2018-09-03T07:24:18.318Z,22.50
2018-09-03T07:25:18.228Z,22.47
2018-09-03T07:26:18.125Z,22.57
2018-09-03T07:27:18.039Z,22.54
2018-09-03T07:28:17.948Z,22.53
2018-09-03T07:29:17.852Z,22.69
2018-09-03T07:30:17.748Z,22.73
2018-09-03T07:31:17.662Z,22.76
2018-09-03T07:32:17.571Z,22.66
2018-09-03T07:33:17.470Z,22.70
2018-09-03T07:34:17.380Z,22.78
2018-09-03T07:35:17.284Z,23.02
2018-09-03T07:36:17.184Z,22.99
2018-09-03T07:37:17.096Z,22.98
2018-09-03T07:38:17.003Z,22.98
2018-09-03T07:39:16.908Z,23.03
2018-09-03T07:40:16.804Z,23.06
2018-09-03T07:41:16.711Z,23.21
2018-09-03T07:42:16.620Z,23.27
2018-09-03T07:43:16.523Z,23.23
2018-09-03T07:44:16.468Z,23.23
2018-09-03T07:45:16.350Z,23.23
2018-09-03T07:46:16.247Z,23.20
2018-09-03T07:47:16.149Z,23.24
2018-09-03T07:48:16.058Z,23.06
2018-09-03T07:49:15.965Z,23.20
2018-09-03T07:50:15.865Z,23.15
2018-09-03T07:51:15.766Z,23.23
2018-09-03T07:52:15.676Z,23.37
2018-09-03T07:53:15.583Z,23.32
2018-09-03T07:54:15.481Z,23.48
2018-09-03T07:55:15.395Z,23.48
2018-09-03T07:56:15.302Z,23.55
2018-09-03T07:57:15.203Z,23.68
2018-09-03T07:58:15.112Z,23.77
2018-09-03T07:59:15.016Z,23.87
2018-09-03T08:00:14.926Z,23.96
2018-09-03T08:01:14.911Z,23.95
2018-09-03T08:02:14.734Z,23.81
2018-09-03T08:03:14.641Z,24.01
2018-09-03T08:04:14.547Z,24.03
2018-09-03T08:05:14.459Z,24.23
2018-09-03T08:06:14.356Z,24.53
2018-09-03T08:07:14.294Z,24.48
2018-09-03T08:08:14.179Z,24.61
2018-09-03T08:09:14.083Z,24.66
2018-09-03T08:10:13.981Z,24.76
2018-09-03T08:11:13.896Z,24.96
2018-09-03T08:12:13.803Z,24.85
2018-09-03T08:13:13.710Z,24.88
2018-09-03T08:14:13.618Z,24.88
2018-09-03T08:15:13.513Z,25.11
2018-09-03T08:16:13.433Z,25.46
2018-09-03T08:17:13.336Z,25.53
2018-09-03T08:18:13.246Z,25.44
2018-09-03T08:19:13.153Z,25.41
2018-09-03T08:20:13.063Z,25.54
2018-09-03T08:21:12.958Z,25.73
2018-09-03T08:22:12.866Z,25.99
2018-09-03T08:23:12.778Z,25.66
2018-09-03T08:24:12.686Z,25.84
2018-09-03T08:25:12.593Z,25.87
2018-09-03T08:26:12.502Z,25.81
2018-09-03T08:27:12.415Z,25.96
2018-09-03T08:28:12.323Z,26.07
2018-09-03T08:29:12.234Z,25.83
2018-09-03T08:30:12.138Z,25.51
2018-09-03T08:31:12.036Z,25.68
2018-09-03T08:32:11.945Z,25.66
2018-09-03T08:33:11.869Z,25.88
2018-09-03T08:34:11.767Z,26.13
2018-09-03T08:35:11.672Z,26.36
2018-09-03T08:36:11.581Z,26.60
2018-09-03T08:37:11.491Z,26.07
2018-09-03T08:38:11.403Z,26.25
2018-09-03T08:39:11.308Z,26.34
2018-09-03T08:40:11.216Z,26.19
2018-09-03T08:41:11.117Z,26.31
2018-09-03T08:42:11.024Z,26.40
2018-09-03T08:43:10.939Z,26.26
2018-09-03T08:44:10.847Z,26.25
2018-09-03T08:45:10.755Z,25.91
2018-09-03T08:46:10.664Z,25.72
2018-09-03T08:47:10.569Z,25.68
2018-09-03T08:48:10.478Z,25.62
2018-09-03T08:49:10.393Z,25.60
2018-09-03T08:50:10.353Z,25.63
2018-09-03T08:51:10.196Z,25.47
2018-09-03T08:52:10.106Z,25.60
2018-09-03T08:53:10.011Z,25.98
2018-09-03T08:54:09.923Z,26.03
2018-09-03T08:55:09.833Z,25.93
2018-09-03T08:56:09.743Z,25.65
2018-09-03T08:57:09.652Z,25.70
2018-09-03T08:58:09.560Z,25.83
2018-09-03T08:59:09.472Z,25.84
2018-09-03T09:00:09.383Z,25.77
2018-09-03T09:01:09.289Z,25.98
2018-09-03T09:02:09.191Z,26.22
2018-09-03T09:03:09.091Z,26.52
2018-09-03T09:04:09.001Z,26.36
2018-09-03T09:05:08.915Z,26.33
2018-09-03T09:06:08.824Z,26.22
2018-09-03T09:07:08.733Z,26.23
2018-09-03T09:08:08.641Z,26.19
2018-09-03T09:09:08.546Z,26.13
2018-09-03T09:10:08.455Z,25.91
2018-09-03T09:11:08.369Z,25.87
2018-09-03T09:12:08.277Z,25.75
2018-09-03T09:13:08.171Z,26.02
2018-09-03T09:14:08.080Z,25.93
2018-09-03T09:15:07.993Z,26.02
2018-09-03T09:16:07.905Z,26.10
2018-09-03T09:17:07.813Z,26.00
2018-09-03T09:18:07.723Z,25.93
2018-09-03T09:19:07.627Z,26.13
2018-09-03T09:20:07.537Z,26.15
2018-09-03T09:21:07.455Z,26.16
2018-09-03T09:22:07.357Z,26.18
2018-09-03T09:23:07.262Z,26.06
2018-09-03T09:24:07.158Z,26.13
2018-09-03T09:25:07.132Z,26.06
2018-09-03T09:26:06.978Z,26.02
2018-09-03T09:27:06.893Z,26.13
2018-09-03T09:28:06.806Z,26.18
2018-09-03T09:29:06.708Z,25.98
2018-09-03T09:30:06.615Z,26.03
2018-09-03T09:31:06.530Z,26.21
2018-09-03T09:32:06.438Z,26.68
2018-09-03T09:33:06.333Z,27.10
2018-09-03T09:34:06.244Z,27.68
2018-09-03T09:35:06.147Z,27.89
2018-09-03T09:36:06.061Z,27.92
2018-09-03T09:37:05.972Z,28.08
2018-09-03T09:38:05.881Z,28.00
2018-09-03T09:39:05.786Z,28.00
2018-09-03T09:40:05.696Z,28.01
2018-09-03T09:41:05.602Z,28.32
2018-09-03T09:42:05.505Z,28.38
2018-09-03T09:43:05.492Z,28.02
2018-09-03T09:44:05.321Z,28.12
2018-09-03T09:45:05.228Z,27.48
2018-09-03T09:46:05.136Z,27.18
2018-09-03T09:47:05.050Z,27.25
2018-09-03T09:48:04.959Z,27.25
2018-09-03T09:49:04.869Z,26.95
2018-09-03T09:50:04.779Z,27.07
2018-09-03T09:51:04.684Z,26.77
2018-09-03T09:52:04.594Z,26.75
2018-09-03T09:53:04.504Z,27.00
2018-09-03T09:54:04.413Z,27.08
2018-09-03T09:55:04.319Z,26.96
2018-09-03T09:56:04.229Z,26.95
2018-09-03T09:57:04.140Z,26.84
2018-09-03T09:58:04.053Z,26.81
2018-09-03T09:59:03.961Z,26.83
2018-09-03T10:00:03.870Z,26.83
2018-09-03T10:01:03.767Z,26.78
2018-09-03T10:02:03.677Z,26.95
2018-09-03T10:03:03.581Z,27.11
2018-09-03T10:04:03.491Z,27.26
2018-09-03T10:05:03.399Z,27.33
2018-09-03T10:06:03.306Z,27.39
2018-09-03T10:07:03.220Z,27.22
2018-09-03T10:08:03.129Z,27.07
2018-09-03T10:09:03.036Z,26.96
2018-09-03T10:10:02.949Z,26.96
2018-09-03T10:11:02.858Z,27.08
2018-09-03T10:12:02.757Z,27.20
2018-09-03T10:13:02.663Z,27.25
2018-09-03T10:14:02.572Z,27.44
2018-09-03T10:15:02.478Z,27.37
2018-09-03T10:16:02.385Z,27.42
2018-09-03T10:17:02.302Z,27.22
2018-09-03T10:18:02.223Z,27.25
2018-09-03T10:19:02.117Z,27.33
2018-09-03T10:20:02.024Z,27.42
2018-09-03T10:21:01.956Z,27.40
2018-09-03T10:22:01.843Z,27.47
2018-09-03T10:23:01.748Z,27.74
2018-09-03T10:24:01.654Z,27.71
2018-09-03T10:25:01.559Z,27.67
2018-09-03T10:26:01.466Z,27.71
2018-09-03T10:27:01.380Z,27.70
2018-09-03T10:28:01.289Z,27.71
2018-09-03T10:29:01.199Z,27.71
2018-09-03T10:30:01.109Z,27.60
2018-09-03T10:31:01.014Z,27.44
2018-09-03T10:32:00.971Z,27.44
2018-09-03T10:33:00.836Z,27.35
2018-09-03T10:34:00.734Z,27.48
2018-09-03T10:35:00.639Z,27.55
2018-09-03T10:36:00.547Z,27.63
2018-09-03T10:37:00.461Z,27.85
2018-09-03T10:38:00.418Z,28.04
2018-09-03T10:39:00.278Z,28.02
2018-09-03T10:40:00.185Z,28.04
2018-09-03T10:41:00.094Z,28.00
2018-09-03T10:42:00.015Z,27.85
2018-09-03T10:42:59.917Z,27.83
2018-09-03T10:43:59.814Z,27.48
2018-09-03T10:44:59.720Z,27.47
2018-09-03T10:45:59.629Z,27.58
2018-09-03T10:46:59.593Z,27.64
2018-09-03T10:47:59.443Z,27.58
2018-09-03T10:48:59.358Z,27.58
2018-09-03T10:49:59.266Z,27.74
2018-09-03T10:50:59.170Z,27.85
2018-09-03T10:51:59.081Z,28.02
2018-09-03T10:52:58.991Z,28.00
2018-09-03T10:53:58.901Z,27.93
2018-09-03T10:54:58.818Z,27.87
2018-09-03T10:55:58.718Z,27.96
2018-09-03T10:56:58.914Z,28.08
2018-09-03T10:57:58.521Z,28.17
2018-09-03T10:58:58.437Z,28.37
2018-09-03T10:59:58.345Z,28.48
2018-09-03T11:00:58.257Z,28.54
2018-09-03T11:01:58.166Z,28.54
2018-09-03T11:02:58.071Z,28.78
2018-09-03T11:03:57.979Z,28.76
2018-09-03T11:04:57.892Z,28.45
2018-09-03T11:05:57.799Z,28.32
2018-09-03T11:06:57.705Z,28.14
2018-09-03T11:07:57.603Z,28.17
2018-09-03T11:08:57.514Z,28.11
2018-09-03T11:09:57.422Z,28.19
2018-09-03T11:10:57.339Z,28.10
2018-09-03T11:11:57.239Z,28.08
2018-09-03T11:12:57.208Z,28.00
2018-09-03T11:13:57.058Z,28.01
2018-09-03T11:14:56.966Z,28.04
2018-09-03T11:15:56.875Z,28.14
2018-09-03T11:16:56.796Z,28.08
2018-09-03T11:17:56.693Z,28.04
2018-09-03T11:18:56.605Z,28.12
2018-09-03T11:19:56.566Z,28.37
2018-09-03T11:20:56.425Z,28.62
2018-09-03T11:21:56.330Z,28.84
2018-09-03T11:22:56.238Z,28.79
2018-09-03T11:23:56.195Z,28.76
2018-09-03T11:24:56.057Z,28.76
2018-09-03T11:25:55.967Z,28.66
2018-09-03T11:26:55.909Z,28.62
2018-09-03T11:27:55.773Z,28.60
2018-09-03T11:28:55.685Z,28.39
2018-09-03T11:29:55.591Z,28.05
2018-09-03T11:30:55.549Z,28.11
2018-09-03T11:31:55.409Z,28.04
2018-09-03T11:32:55.336Z,28.04
2018-09-03T11:33:55.231Z,27.98
2018-09-03T11:34:55.189Z,27.89
2018-09-03T11:35:55.051Z,27.98
2018-09-03T11:36:54.956Z,28.08
2018-09-03T11:37:54.865Z,28.12
2018-09-03T11:38:54.775Z,28.35
2018-09-03T11:39:54.684Z,28.59
2018-09-03T11:40:54.667Z,28.75
2018-09-03T11:41:54.502Z,28.60
2018-09-03T11:42:54.413Z,28.66
2018-09-03T11:43:54.320Z,28.66
2018-09-03T11:44:54.231Z,28.75
2018-09-03T11:45:54.140Z,28.62
2018-09-03T11:46:54.056Z,28.60
2018-09-03T11:47:53.957Z,28.35
2018-09-03T11:48:53.868Z,28.51
2018-09-03T11:49:53.775Z,28.49
2018-09-03T11:50:53.673Z,28.75
2018-09-03T11:51:53.582Z,28.66
2018-09-03T11:52:53.490Z,28.70
2018-09-03T11:53:53.400Z,28.76
2018-09-03T11:54:53.309Z,28.75
2018-09-03T11:55:53.223Z,28.72
2018-09-03T11:56:53.127Z,28.79
2018-09-03T11:57:53.038Z,28.79
2018-09-03T11:58:52.947Z,28.75
2018-09-03T11:59:52.856Z,28.82
2018-09-03T12:00:52.778Z,28.78
2018-09-03T12:01:52.693Z,28.57
2018-09-03T12:02:52.582Z,28.63
2018-09-03T12:03:52.492Z,28.81
2018-09-03T12:04:52.425Z,28.66
2018-09-03T12:05:52.311Z,28.47
2018-09-03T12:06:52.220Z,28.37
2018-09-03T12:07:52.129Z,28.56
2018-09-03T12:08:52.037Z,28.74
2018-09-03T12:09:51.947Z,28.78
2018-09-03T12:10:51.856Z,28.74
2018-09-03T12:11:51.766Z,28.63
2018-09-03T12:12:51.675Z,28.60
2018-09-03T12:13:51.572Z,28.51
2018-09-03T12:14:51.481Z,28.52
2018-09-03T12:15:51.390Z,28.67
2018-09-03T12:16:51.299Z,28.89
2018-09-03T12:17:51.221Z,28.78
2018-09-03T12:18:51.118Z,28.69
2018-09-03T12:19:51.026Z,28.66
2018-09-03T12:20:50.972Z,28.93
2018-09-03T12:21:50.848Z,29.10
2018-09-03T12:22:50.761Z,29.10
2018-09-03T12:23:50.662Z,29.20
2018-09-03T12:24:50.574Z,29.14
2018-09-03T12:25:50.484Z,29.26
2018-09-03T12:26:50.393Z,29.32
2018-09-03T12:27:50.300Z,29.34
2018-09-03T12:28:50.210Z,29.20
2018-09-03T12:29:50.118Z,29.07
2018-09-03T12:30:50.031Z,28.93
2018-09-03T12:31:49.939Z,28.78
2018-09-03T12:32:49.852Z,28.86
2018-09-03T12:33:49.755Z,28.88
2018-09-03T12:34:49.665Z,28.91
2018-09-03T12:35:49.562Z,28.89
2018-09-03T12:36:49.522Z,29.14
2018-09-03T12:37:49.381Z,29.26
2018-09-03T12:38:49.288Z,29.14
2018-09-03T12:39:49.197Z,29.07
2018-09-03T12:40:49.107Z,29.16
2018-09-03T12:41:49.064Z,29.20
2018-09-03T12:42:48.969Z,29.23
2018-09-03T12:43:48.835Z,29.16
2018-09-03T12:44:48.756Z,29.29
2018-09-03T12:45:48.653Z,29.10
2018-09-03T12:46:48.561Z,29.13
2018-09-03T12:47:48.473Z,29.23
2018-09-03T12:48:48.380Z,29.17
2018-09-03T12:49:48.297Z,29.04
2018-09-03T12:50:48.198Z,28.94